DAAG Airport Information

Runway Information
Runway 05 Length 11483 ft width 197 ft
Elevation 72 ft Threshold 0 ft Heading 53
Runway 23 Length 11483 ft Width 197 ft
Elevation 82 ft Threshold 0 ft Heading 233
Runway 09 Length 11483 ft width 148 ft
Elevation 56 ft Threshold 0 ft Heading 92
Runway 27 Length 11483 ft Width 148 ft
Elevation 82 ft Threshold 0 ft Heading 272
Airport Frequencies
Type APP Name ALGER APP Frequency 121.4 MHZ
Type GND Name ALGER GND Frequency 121.8 MHZ
Type TWR Name ALGER TWR Frequency 118.7 MHZ
Airport Navaids
Type VOR-DME Name Alger Frequency 112500 KHZ
Type NDB Name Houari Boumediene Frequency 416 KHZ
Type VOR Name Alger Frequency 113900 KHZ
Type NDB Name Houari Boumediene Frequency 370 KHZ
Airport Weather Information & NOTAM
ADDS - METARS form results

(1020 UTC 07 July 2020)
Data provider http://aviationweather.gov/metar/data/
 
METAR text: DAAG 071000Z 08011KT CAVOK 33/13 Q1016
Conditions at: DAAG (DAR-EL-BEIDA/HOU, DZ) observed 1000 UTC 07 July 2020
Temperature: 33.0°C (91°F)
Dewpoint: 13.0°C (55°F) [RH = 30%]
Pressure (altimeter): 30.00 inches Hg (1016.0 mb)
Winds: from the E (80 degrees) at 13 MPH (11 knots; 5.7 m/s)
Visibility: 6 or more miles (10+ km)
Ceiling: ceiling and visibility are OK
Clouds: unknown
Weather: no significant weather observed at this time

METAR text: DAAG 070930Z 06009KT CAVOK 32/12 Q1016
Conditions at: DAAG (DAR-EL-BEIDA/HOU, DZ) observed 0930 UTC 07 July 2020
Temperature: 32.0°C (90°F)
Dewpoint: 12.0°C (54°F) [RH = 30%]
Pressure (altimeter): 30.00 inches Hg (1016.0 mb)
Winds: from the ENE (60 degrees) at 10 MPH (9 knots; 4.6 m/s)
Visibility: 6 or more miles (10+ km)
Ceiling: ceiling and visibility are OK
Clouds: unknown
Weather: no significant weather observed at this time

Forecast for: DAAG (DAR-EL-BEIDA/HOU, DZ)
Text: TAF DAAG 070500Z 0706/0806 VRB02KT CAVOK
Forecast period: 0600 to 1000 UTC 07 July 2020
Forecast type: FROM: standard forecast or significant change
Winds: variable direction winds at 2 MPH (2 knots; 1.0 m/s)
Visibility: 6 or more miles 10+ km)
Ceiling: unknown
Clouds: missing
Weather: NSW  (no significant weather)
Text: BECMG 0710/0714 07014KT
Forecast period: 1000 to 2000 UTC 07 July 2020
Forecast type: BECOMING: Conditions expected to become as follows by 1400 UTC 07 July 2020
Winds: from the ENE (70 degrees) at 16 MPH (14 knots; 7.2 m/s)
Visibility: 6 or more miles 10+ km)
Ceiling: unknown
Clouds: missing
Weather: NSW  (no significant weather)
Text: BECMG 0720/0724 VRB02KT
Forecast period: 2000 UTC 07 July 2020 to 0600 UTC 08 July 2020
Forecast type: BECOMING: Conditions expected to become as follows by 0000 UTC 08 July 2020
Winds: variable direction winds at 2 MPH (2 knots; 1.0 m/s)
Visibility: 6 or more miles 10+ km)
Ceiling: unknown
Clouds: missing
Weather: NSW  (no significant weather)